Latest Weather Observations for Sydney - Observatory Hill

IDN60801

Issued at 10:03 pm EST Thursday 24 September 2020 (issued every 10 minutes, with the page automatically refreshed every 10 minutes)

About weather observations | Map of weather stations | Latest weather observations for NSW | Other Formats
Station Details ID: 066214 Name: SYDNEY (OBSERVATORY HILL) Lat: -33.86 Lon: 151.20 Height: 43.37 m
Data from the previous 72 hours. | See also: Recent months at Sydney - Observatory Hill

* Apparent temperature (App Temp) for Sydney - Observatory Hill is calculated using temperature observations collected at Sydney - Observatory Hill and wind observations collected at Fort Denison, as wind observations are not currently provided for Sydney - Observatory Hill.

Date/Time
EST
Temp
°C
App
Temp
°C
Dew
Point
°C
Rel
Hum
%
Delta-T
°C
Wind Press
QNH
hPa
Press
MSL
hPa
Rain since
9am
mm
Dir  Spd
km/h
Gust
km/h
Spd
kts
Gust
kts
24/10:00pm 15.7 13.2 3.8 45 5.5 WNW 6 - 3 - 1013.9 1013.8 0.0
24/09:30pm 16.0 13.3 3.8 44 5.6 NW 7 - 4 - 1014.0 1013.9 0.0
24/09:00pm 16.4 12.8 3.1 41 6.1 WNW 11 - 6 - 1014.2 1014.1 0.0
24/08:30pm 16.5 12.6 3.2 41 6.1 NW 13 - 7 - 1014.0 1013.9 0.0
24/08:00pm 16.5 13.3 2.9 40 6.2 NW 9 - 5 - 1013.5 1013.4 0.0
24/07:30pm 16.8 13.5 2.4 38 6.5 WNW 9 - 5 - 1013.0 1012.9 0.0
24/07:00pm 17.2 13.5 2.4 37 6.7 W 11 - 6 - 1012.6 1012.5 0.0
24/06:30pm 17.5 12.9 1.5 34 7.1 W 15 - 8 - 1012.1 1012.0 0.0
24/06:00pm 18.0 11.7 1.5 33 7.4 W 24 - 13 - 1011.8 1011.7 0.0
24/05:30pm 18.7 13.1 1.2 31 7.8 W 20 - 11 - 1011.7 1011.6 0.0
24/05:00pm 18.9 12.9 1.0 30 8.0 WNW 22 - 12 - 1011.6 1011.5 0.0
24/04:30pm 19.5 13.9 1.5 30 8.2 WNW 20 - 11 - 1011.2 1011.1 0.0
24/04:00pm 20.2 14.4 0.1 26 8.9 W 20 - 11 - 1011.1 1011.0 0.0
24/03:30pm 21.4 15.0 1.1 26 9.3 WNW 24 - 13 - 1011.0 1010.9 0.0
24/03:00pm 21.8 15.1 1.5 26 9.4 W 26 - 14 - 1011.0 1010.9 0.0
24/02:30pm 21.9 16.2 3.1 29 9.0 WNW 22 - 12 - 1011.0 1010.9 0.0
24/02:00pm 21.6 16.5 3.3 30 8.8 WNW 19 - 10 - 1011.3 1011.2 0.0
24/01:30pm 21.2 15.1 2.5 29 8.8 WNW 24 - 13 - 1011.7 1011.6 0.0
24/01:00pm 20.6 14.5 2.9 31 8.3 W 24 - 13 - 1011.9 1011.8 0.0
24/12:30pm 20.7 14.8 3.9 33 8.1 WNW 24 - 13 - 1012.3 1012.2 0.0
24/12:00pm 20.1 12.5 2.9 32 8.1 W 32 - 17 - 1012.7 1012.6 0.0
24/11:30am 19.7 12.8 4.6 37 7.3 W 30 - 16 - 1013.0 1012.9 0.0
24/11:00am 19.2 12.5 3.8 36 7.3 W 28 - 15 - 1013.2 1013.1 0.0
24/10:30am 18.5 11.7 5.0 41 6.5 W 30 - 16 - 1013.5 1013.4 0.0
24/10:00am 17.8 10.4 4.0 40 6.5 W 32 - 17 - 1013.5 1013.4 0.0
24/09:30am 17.5 11.6 4.1 41 6.3 W 24 - 13 - 1013.7 1013.6 0.0
24/09:00am 17.0 10.7 3.7 41 6.2 WNW 26 - 14 - 1013.8 1013.7 0.0
24/08:30am 16.2 10.9 4.9 47 5.4 WNW 22 - 12 - 1014.0 1013.9 0.0
24/08:00am 15.2 10.1 6.0 54 4.4 WNW 22 - 12 - 1014.0 1013.9 0.0
24/07:30am 14.3 10.1 5.9 57 4.0 WNW 17 - 9 - 1013.7 1013.6 0.0
24/07:00am 13.5 9.7 5.9 60 3.6 WNW 15 - 8 - 1013.5 1013.4 0.0
24/06:30am 12.9 8.7 5.6 61 3.4 WNW 17 - 9 - 1013.4 1013.3 0.0
24/06:00am 12.7 8.8 5.4 61 3.4 WNW 15 - 8 - 1013.2 1013.1 0.0
24/05:30am 12.7 9.1 5.1 60 3.5 WNW 13 - 7 - 1013.1 1013.0 0.0
24/05:00am 12.4 9.6 5.3 62 3.3 WNW 9 - 5 - 1012.9 1012.8 0.0
24/04:30am 12.4 8.6 5.6 63 3.2 NW 15 - 8 - 1012.8 1012.7 0.0
24/04:00am 12.7 9.5 5.1 60 3.5 WNW 11 - 6 - 1012.7 1012.6 0.0
24/03:30am 12.9 10.1 5.1 59 3.6 NW 9 - 5 - 1012.8 1012.7 0.0
24/03:00am 12.7 9.8 4.7 58 3.7 NW 9 - 5 - 1013.0 1012.9 0.0
24/02:30am 13.3 9.9 5.7 60 3.6 WNW 13 - 7 - 1012.9 1012.8 0.0
24/02:00am 13.2 9.6 4.9 57 3.8 WNW 13 - 7 - 1013.1 1013.0 0.0
24/01:30am 13.5 12.1 5.4 58 3.8 W 2 - 1 - 1013.5 1013.4 0.0
24/01:00am 13.8 11.7 5.7 58 3.8 NW 6 - 3 - 1013.6 1013.5 0.0
24/12:30am 13.8 11.7 5.7 58 3.8 WSW 6 - 3 - 1013.8 1013.7 0.0
24/12:00am 14.4 11.2 6.7 60 3.7 WNW 13 - 7 - 1014.0 1013.9 0.0
 
Date/Time
EST
Temp
°C
App
Temp
°C
Dew
Point
°C
Rel
Hum
%
Delta-T
°C
Wind Press
QNH
hPa
Press
MSL
hPa
Rain since
9am
mm
Dir  Spd
km/h
Gust
km/h
Spd
kts
Gust
kts
23/11:30pm 14.4 11.4 6.0 57 4.0 NW 11 - 6 - 1014.3 1014.2 0.0
23/11:00pm 14.7 12.0 5.8 55 4.2 NW 9 - 5 - 1014.3 1014.2 0.0
23/10:30pm 15.1 11.6 5.6 53 4.5 WNW 13 - 7 - 1014.4 1014.3 0.0
23/10:00pm 15.5 12.0 5.4 51 4.8 NW 13 - 7 - 1014.5 1014.4 0.0
23/09:30pm 16.3 12.3 5.0 47 5.4 WNW 15 - 8 - 1014.4 1014.3 0.0
23/09:00pm 16.7 11.8 5.0 46 5.6 WNW 20 - 11 - 1014.2 1014.1 0.0
23/08:30pm 17.0 12.0 4.7 44 5.8 W 20 - 11 - 1014.1 1014.0 0.0
23/08:00pm 17.4 12.9 4.4 42 6.2 WNW 17 - 9 - 1013.9 1013.8 0.0
23/07:30pm 18.0 12.2 4.6 41 6.4 W 24 - 13 - 1013.4 1013.3 0.0
23/07:00pm 18.6 12.3 4.0 38 6.9 W 26 - 14 - 1013.0 1012.9 0.0
23/06:30pm 19.1 11.6 3.3 35 7.4 WNW 32 - 17 - 1012.6 1012.5 0.0
23/06:00pm 19.7 12.9 3.0 33 7.8 W 28 - 15 - 1012.0 1011.9 0.0
23/05:30pm 20.0 14.3 2.8 32 8.0 WNW 22 - 12 - 1011.4 1011.3 0.0
23/05:00pm 20.6 15.0 3.3 32 8.2 W 22 - 12 - 1010.9 1010.8 0.0
23/04:30pm 21.1 15.0 2.9 30 8.6 WNW 24 - 13 - 1010.3 1010.2 0.0
23/04:00pm 21.4 14.9 2.6 29 8.9 WNW 26 - 14 - 1010.0 1009.9 0.0
23/03:30pm 22.6 15.8 3.2 28 9.3 WNW 28 - 15 - 1009.7 1009.6 0.0
23/03:00pm 23.1 16.8 3.6 28 9.5 W 26 - 14 - 1009.4 1009.3 0.0
23/02:30pm 23.4 16.7 3.4 27 9.7 WNW 28 - 15 - 1009.5 1009.4 0.0
23/02:00pm 24.2 18.1 4.6 28 9.8 WNW 26 - 14 - 1009.6 1009.5 0.0
23/01:30pm 23.8 17.9 3.7 27 9.8 WNW 24 - 13 - 1009.7 1009.6 0.0
23/01:00pm 23.3 16.7 4.3 29 9.4 WNW 28 - 15 - 1010.1 1010.0 0.0
23/12:30pm 23.2 18.6 3.7 28 9.5 W 17 - 9 - 1010.3 1010.2 0.0
23/12:00pm 21.8 16.5 3.0 29 9.0 W 20 - 11 - 1011.0 1010.9 0.0
23/11:30am 22.6 16.8 4.2 30 9.0 W 24 - 13 - 1011.3 1011.2 0.0
23/11:00am 22.2 16.8 4.3 31 8.8 W 22 - 12 - 1011.7 1011.6 0.0
23/10:30am 21.2 14.7 2.5 29 8.8 WNW 26 - 14 - 1012.0 1011.9 0.0
23/10:00am 20.8 15.7 3.1 31 8.4 W 19 - 10 - 1012.2 1012.1 0.0
23/09:30am 20.5 14.4 2.8 31 8.3 W 24 - 13 - 1012.4 1012.3 0.0
23/09:00am 20.3 18.0 5.9 39 7.2 W 7 - 4 - 1012.6 1012.5 0.0
23/08:30am 18.8 16.8 6.3 44 6.2 WNW 6 - 3 - 1012.9 1012.8 0.0
23/08:00am 17.0 14.7 5.6 47 5.5 WSW 7 - 4 - 1013.2 1013.1 0.0
23/07:30am 16.2 14.5 6.1 51 4.9 NE 4 - 2 - 1013.1 1013.0 0.0
23/07:00am 15.8 14.8 8.8 63 3.6 NE 4 - 2 - 1012.8 1012.7 0.0
23/06:30am 14.8 13.3 8.5 66 3.2 N 6 - 3 - 1012.6 1012.5 0.0
23/06:00am 14.7 13.0 7.5 62 3.6 N 6 - 3 - 1012.3 1012.2 0.0
23/05:30am 14.2 12.2 6.1 58 3.9 NNW 6 - 3 - 1012.1 1012.0 0.0
23/05:00am 14.8 13.1 5.9 55 4.3 NNE 4 - 2 - 1011.8 1011.7 0.0
23/04:30am 15.4 14.0 5.6 52 4.7 N 2 - 1 - 1011.6 1011.5 0.0
23/04:00am 15.5 14.2 7.5 59 4.0 N 4 - 2 - 1011.6 1011.5 0.0
23/03:30am 16.1 14.0 6.0 51 4.9 ENE 6 - 3 - 1011.7 1011.6 0.0
23/03:00am 16.7 14.8 6.5 51 5.0 WSW 6 - 3 - 1011.6 1011.5 0.0
23/02:30am 17.2 15.2 7.0 51 5.1 S 7 - 4 - 1011.7 1011.6 0.0
23/02:00am 17.5 15.6 7.5 52 5.0 S 7 - 4 - 1011.7 1011.6 0.0
23/01:30am 17.9 14.8 8.7 55 4.8 WNW 15 - 8 - 1011.7 1011.6 0.0
23/01:00am 18.0 15.4 7.7 51 5.2 WNW 11 - 6 - 1011.9 1011.8 0.0
23/12:30am 18.3 14.7 8.3 52 5.2 WNW 17 - 9 - 1011.8 1011.7 0.0
23/12:00am 18.6 15.7 8.0 50 5.4 WNW 13 - 7 - 1011.7 1011.6 0.0
 
Date/Time
EST
Temp
°C
App
Temp
°C
Dew
Point
°C
Rel
Hum
%
Delta-T
°C
Wind Press
QNH
hPa
Press
MSL
hPa
Rain since
9am
mm
Dir  Spd
km/h
Gust
km/h
Spd
kts
Gust
kts
22/11:30pm 18.9 14.3 8.3 50 5.5 NW 22 - 12 - 1011.6 1011.5 0.0
22/11:00pm 19.0 14.9 8.6 51 5.4 NW 20 - 11 - 1011.7 1011.6 0.0
22/10:30pm 19.2 14.2 8.2 49 5.7 NW 24 - 13 - 1011.7 1011.6 0.0
22/10:00pm 19.4 14.6 7.5 46 6.1 NW 22 - 12 - 1011.9 1011.8 0.0
22/09:30pm 19.9 15.5 7.3 44 6.4 NW 20 - 11 - 1012.1 1012.0 0.0
22/09:00pm 20.5 16.9 6.8 41 7.0 NW 15 - 8 - 1012.2 1012.1 0.0
22/08:30pm 20.8 17.5 6.4 39 7.3 W 13 - 7 - 1011.9 1011.8 0.0
22/08:00pm 21.1 17.2 5.5 36 7.8 W 15 - 8 - 1011.6 1011.5 0.0
22/07:30pm 21.7 14.3 5.2 34 8.2 W 33 - 18 - 1011.1 1011.0 0.0
22/07:00pm 22.0 16.3 5.0 33 8.4 WNW 24 - 13 - 1010.7 1010.6 0.0
22/06:30pm 22.2 15.7 4.7 32 8.6 WNW 28 - 15 - 1010.2 1010.1 0.0
22/06:00pm 22.8 15.2 3.9 29 9.2 WNW 33 - 18 - 1009.7 1009.6 0.0
22/05:30pm 23.4 15.8 3.9 28 9.6 WNW 33 - 18 - 1009.4 1009.3 0.0
22/05:00pm 24.0 16.6 3.9 27 9.9 W 32 - 17 - 1008.9 1008.9 0.0
22/04:30pm 24.6 16.7 2.1 23 10.7 W 33 - 18 - 1008.6 1008.6 0.0
22/04:00pm 25.0 18.2 3.0 24 10.7 WNW 28 - 15 - 1008.3 1008.3 0.0
22/03:30pm 26.0 18.7 2.7 22 11.4 WNW 30 - 16 - 1008.2 1008.2 0.0
22/03:00pm 26.4 19.6 3.0 22 11.5 WNW 28 - 15 - 1008.1 1008.1 0.0
22/02:30pm 26.5 18.9 3.1 22 11.5 WNW 32 - 17 - 1008.1 1008.1 0.0
22/02:00pm 26.2 18.1 0.8 19 12.0 WNW 33 - 18 - 1008.3 1008.3 0.0
22/01:30pm 26.3 18.9 4.1 24 11.1 WNW 32 - 17 - 1008.4 1008.4 0.0
22/01:00pm 26.4 20.6 4.2 24 11.2 WNW 24 - 13 - 1008.7 1008.7 0.0
22/12:30pm 25.8 20.2 3.7 24 11.0 W 22 - 12 - 1009.1 1009.0 0.0
22/12:00pm 25.8 21.2 5.4 27 10.5 WNW 19 - 10 - 1009.4 1009.3 0.0
22/11:30am 24.9 19.6 5.2 28 10.0 WNW 22 - 12 - 1009.8 1009.7 0.0
22/11:00am 24.5 19.9 6.3 31 9.4 W 20 - 11 - 1010.2 1010.1 0.0
22/10:30am 23.8 19.2 6.6 33 8.9 WNW 20 - 11 - 1010.4 1010.3 0.0
22/10:00am 23.0 17.7 6.7 35 8.4 W 24 - 13 - 1010.5 1010.4 0.0
22/09:30am 22.4 16.2 7.8 39 7.6 W 30 - 16 - 1010.6 1010.5 0.0
22/09:00am 21.8 16.4 6.5 37 7.8 WSW 24 - 13 - 1010.4 1010.3 0.0
22/08:30am 21.3 15.3 7.2 40 7.2 WSW 28 - 15 - 1010.3 1010.2 0.0
22/08:00am 20.2 14.9 8.5 47 6.1 WSW 26 - 14 - 1010.4 1010.3 0.0
22/07:30am 19.7 15.2 9.9 53 5.2 W 24 - 13 - 1010.2 1010.1 0.0
22/07:00am 19.7 16.9 12.7 64 4.0 W 19 - 10 - 1009.8 1009.7 0.0
22/06:30am 19.7 16.7 14.7 73 2.9 W 24 - 13 - 1008.9 1008.9 0.0
22/06:00am 19.4 19.9 14.9 75 2.6 WNW 6 - 3 - 1008.0 1008.0 0.0
22/05:30am 19.8 18.8 14.6 72 3.0 W 13 - 7 - 1007.7 1007.7 0.0
22/05:00am 20.0 19.3 14.4 70 3.3 W 11 - 6 - 1007.3 1007.3 0.0
22/04:30am 20.5 17.3 14.2 67 3.7 NNW 24 - 13 - 1006.9 1006.9 0.0
22/04:00am 20.8 17.5 14.0 65 4.0 NNW 24 - 13 - 1006.4 1006.4 0.0
22/03:30am 20.9 17.9 13.6 63 4.2 NNW 22 - 12 - 1006.2 1006.2 0.0
22/03:00am 21.3 18.8 13.5 61 4.5 NNW 19 - 10 - 1006.2 1006.2 0.0
22/02:30am 21.4 19.5 13.1 59 4.8 NNW 15 - 8 - 1006.2 1006.2 0.0
22/02:00am 22.0 19.6 12.8 56 5.3 NNW 17 - 9 - 1006.3 1006.3 0.0
22/01:30am 22.6 19.6 12.5 53 5.8 NNW 20 - 11 - 1006.8 1006.8 0.0
22/01:00am 23.4 18.2 12.7 51 6.2 NNW 32 - 17 - 1006.9 1006.9 0.0
22/12:30am 23.5 19.4 12.8 51 6.2 NW 26 - 14 - 1007.0 1007.0 0.0
22/12:00am 23.5 20.9 13.9 55 5.6 NW 20 - 11 - 1006.7 1006.7 0.0
 
Date/Time
EST
Temp
°C
App
Temp
°C
Dew
Point
°C
Rel
Hum
%
Delta-T
°C
Wind Press
QNH
hPa
Press
MSL
hPa
Rain since
9am
mm
Dir  Spd
km/h
Gust
km/h
Spd
kts
Gust
kts
21/11:30pm 23.5 21.9 16.1 63 4.5 N 19 - 10 - 1006.4 1006.4 0.0
21/11:00pm 23.4 23.4 17.2 68 3.8 N 13 - 7 - 1007.4 1007.4 0.0
21/10:30pm 23.8 23.5 17.3 67 4.0 N 15 - 8 - 1007.1 1007.1 0.0

Other formats

Comma delimited format used in spreadsheet applications
http://www.bom.gov.au/fwo/IDN60801/IDN60801.94768.axf

JavaScript Object Notation format (JSON) in row-major order
http://www.bom.gov.au/fwo/IDN60801/IDN60801.94768.json

Data quality

Most of these data are generated automatically and are frequently updated. Quality checks on data are not normally performed. It is possible for incorrect values to appear. Refer to information at About Latest Weather Observations and please check the disclaimer before using these data.